createdAt,value
2017-08-12T19:46:56.933Z,67.70
2017-08-12T19:49:24.216Z,67.56
2017-08-12T19:51:51.744Z,67.47
2017-08-12T19:54:19.236Z,67.39
2017-08-12T19:56:46.420Z,67.35
2017-08-12T19:59:13.734Z,67.40
2017-08-12T20:01:41.265Z,67.41
2017-08-12T20:04:08.655Z,67.43
2017-08-12T20:06:36.101Z,67.47
2017-08-12T20:09:03.286Z,67.52
2017-08-12T20:11:30.457Z,67.55
2017-08-12T20:13:57.864Z,67.57
2017-08-12T20:16:25.493Z,67.59
2017-08-12T20:18:52.965Z,67.61
2017-08-12T20:21:20.554Z,67.62
2017-08-12T20:23:47.746Z,67.64
2017-08-12T20:26:14.928Z,67.66
2017-08-12T20:28:42.104Z,67.67
2017-08-12T20:31:09.293Z,67.69
2017-08-12T20:33:36.916Z,67.69
2017-08-12T20:36:04.091Z,67.70
2017-08-12T20:38:31.261Z,67.71
2017-08-12T20:40:58.448Z,67.72
2017-08-12T20:43:25.645Z,67.74
2017-08-12T20:45:52.816Z,67.75
2017-08-12T20:48:20.123Z,67.76
2017-08-12T20:50:47.842Z,67.73
2017-08-12T20:53:15.776Z,67.75
2017-08-12T20:55:43.094Z,67.76
2017-08-12T20:58:10.796Z,67.78
2017-08-12T21:00:37.975Z,67.80
2017-08-12T21:03:05.471Z,67.80
2017-08-12T21:05:32.645Z,67.81
2017-08-12T21:08:00.280Z,67.82
2017-08-12T21:10:27.608Z,67.84
2017-08-12T21:12:55.176Z,67.86
2017-08-12T21:15:22.458Z,67.87
2017-08-12T21:17:49.909Z,67.88
2017-08-12T21:20:17.365Z,67.89
2017-08-12T21:22:44.897Z,67.89
2017-08-12T21:25:12.085Z,67.91
2017-08-12T21:27:39.271Z,67.91
2017-08-12T21:30:06.444Z,67.92
2017-08-12T21:32:33.728Z,67.91
2017-08-12T21:35:00.915Z,67.89
2017-08-12T21:37:28.402Z,67.91
2017-08-12T21:39:55.589Z,67.90
2017-08-12T21:42:22.946Z,67.92
2017-08-12T21:44:50.580Z,67.92
2017-08-12T21:47:17.764Z,67.92
2017-08-12T21:49:45.001Z,67.91
2017-08-12T21:52:12.173Z,67.88
2017-08-12T21:54:39.598Z,67.88
2017-08-12T21:57:07.094Z,67.87
2017-08-12T21:59:34.526Z,67.87
2017-08-12T22:02:02.303Z,67.89
2017-08-12T22:04:29.947Z,67.92
2017-08-12T22:06:57.189Z,67.94
2017-08-12T22:09:24.457Z,67.95
2017-08-12T22:11:51.816Z,67.94
2017-08-12T22:14:18.994Z,67.95
2017-08-12T22:16:46.165Z,67.96
2017-08-12T22:19:13.564Z,67.97
2017-08-12T22:21:40.734Z,67.98
2017-08-12T22:24:08.496Z,67.99
2017-08-12T22:26:35.682Z,67.97
2017-08-12T22:29:03.172Z,67.99
2017-08-12T22:31:30.662Z,68.02
2017-08-12T22:33:58.208Z,68.04
2017-08-12T22:36:25.396Z,68.05
2017-08-12T22:38:52.569Z,68.06
2017-08-12T22:41:20.390Z,68.18
2017-08-12T22:43:47.903Z,67.63
2017-08-12T22:46:15.088Z,66.75
2017-08-12T22:48:42.261Z,66.24
2017-08-12T22:51:09.603Z,65.72
2017-08-12T22:53:37.059Z,64.58
2017-08-12T22:56:04.694Z,65.58
2017-08-12T22:58:31.874Z,66.02
2017-08-12T23:00:59.045Z,66.08
2017-08-12T23:03:26.345Z,66.12
2017-08-12T23:05:53.887Z,66.17
2017-08-12T23:08:21.074Z,66.31
2017-08-12T23:10:48.332Z,66.43
2017-08-12T23:13:15.991Z,66.58
2017-08-12T23:15:43.231Z,66.74
2017-08-12T23:18:10.405Z,66.84
2017-08-12T23:20:37.851Z,66.94
2017-08-12T23:23:05.385Z,67.04
2017-08-12T23:25:32.977Z,67.12
2017-08-12T23:28:00.224Z,67.15
2017-08-12T23:30:27.410Z,67.17
2017-08-12T23:32:54.828Z,67.19
2017-08-12T23:35:22.347Z,67.21
2017-08-12T23:37:49.746Z,67.27
2017-08-12T23:40:17.259Z,67.31
2017-08-12T23:42:44.777Z,67.36
2017-08-12T23:45:12.295Z,67.38
2017-08-12T23:47:39.890Z,67.40
2017-08-12T23:50:07.057Z,67.42
2017-08-12T23:52:34.672Z,67.43
2017-08-12T23:55:01.948Z,67.44
2017-08-12T23:57:29.607Z,67.48
2017-08-12T23:59:56.781Z,67.49
